Time;durP1;ratioP1;P1;durP2;ratioP2;P2;SDS_P1;SDS_P2;PMS_P1;PMS_P2;Temp;Humidity;BMP_temperature;BMP_pressure;BME280_temperature;BME280_humidity;BME280_pressure;Samples;Min_cycle;Max_cycle;Signal;HPM_P1;HPM_P2
2021/08/03 00:01:46;;;;;;;;;5.00;5.00;;;;;18.97;78.03;101115.78;5073085;28;45572;-69
2021/08/03 00:04:17;;;;;;;;;5.75;5.75;;;;;18.98;77.62;101125.47;5073037;28;45543;-69
2021/08/03 00:07:01;;;;;;;;;7.75;5.75;;;;;18.90;77.97;101111.88;5075281;27;45247;-69
2021/08/03 00:09:30;;;;;;;;;8.50;8.00;;;;;18.89;78.31;101121.66;5074290;27;46322;-69
2021/08/03 00:11:57;;;;;;;;;7.00;6.50;;;;;18.89;78.31;101121.66;5072698;27;45460;-69
2021/08/03 00:14:22;;;;;;;;;8.25;8.25;;;;;18.83;78.12;101111.44;5073151;27;45508;-69
2021/08/03 00:16:48;;;;;;;;;7.00;6.50;;;;;18.82;78.26;101111.56;5072846;28;45591;-69
2021/08/03 00:19:14;;;;;;;;;7.00;5.75;;;;;18.80;78.75;101114.34;5072797;27;46449;-69
2021/08/03 00:21:39;;;;;;;;;10.50;8.00;;;;;18.81;78.80;101113.38;5074794;27;45465;-69
2021/08/03 00:24:05;;;;;;;;;8.25;6.25;;;;;18.81;78.64;101113.38;5072174;27;45323;-69
2021/08/03 00:26:31;;;;;;;;;5.00;5.00;;;;;18.77;78.94;101103.91;5071396;27;45271;-69
2021/08/03 00:28:57;;;;;;;;;8.75;7.00;;;;;18.81;78.68;101105.38;5071577;27;46373;-69
2021/08/03 00:31:24;;;;;;;;;5.50;5.25;;;;;18.81;78.80;101100.06;5072576;27;45537;-69
2021/08/03 00:33:55;;;;;;;;;9.00;8.00;;;;;18.78;78.55;101097.59;5074045;27;45409;-69
2021/08/03 00:36:25;;;;;;;;;10.50;7.75;;;;;18.78;78.54;101086.94;5073866;27;45292;-69
2021/08/03 00:38:52;;;;;;;;;6.75;6.75;;;;;18.81;78.55;101092.06;5075563;27;45511;-69
2021/08/03 00:41:20;;;;;;;;;7.50;6.00;;;;;18.77;78.77;101083.44;5076075;27;45935;-69
2021/08/03 00:43:46;;;;;;;;;6.75;5.75;;;;;18.78;78.48;101087.81;5076204;27;45299;-69
2021/08/03 00:46:11;;;;;;;;;7.50;7.00;;;;;18.74;78.27;101078.34;5075549;27;45571;-69
2021/08/03 00:48:36;;;;;;;;;7.00;7.00;;;;;18.70;78.45;101078.69;5076380;27;46600;-69
2021/08/03 00:51:02;;;;;;;;;7.00;6.50;;;;;18.68;78.50;101077.91;5075637;28;54789;-70
2021/08/03 00:53:27;;;;;;;;;8.00;8.00;;;;;18.68;78.91;101075.25;5075203;28;45414;-69
2021/08/03 00:55:53;;;;;;;;;10.25;7.00;;;;;18.65;79.18;101073.66;5075650;28;45592;-69
2021/08/03 00:58:18;;;;;;;;;7.75;7.00;;;;;18.66;78.85;101074.50;5075516;28;45421;-69
2021/08/03 01:00:44;;;;;;;;;8.25;7.25;;;;;18.69;78.95;101075.16;5077934;27;45554;-69
2021/08/03 01:03:09;;;;;;;;;10.50;7.75;;;;;18.67;78.90;101071.72;5075731;28;45300;-69
2021/08/03 01:05:41;;;;;;;;;8.75;7.00;;;;;18.68;79.11;101080.59;5074198;27;45403;-69
2021/08/03 01:08:29;;;;;;;;;9.00;6.50;;;;;18.66;79.22;101083.31;5072286;27;46142;-69
2021/08/03 01:11:12;;;;;;;;;9.50;7.50;;;;;18.63;79.50;101067.56;5070961;28;45473;-69
2021/08/03 01:13:56;;;;;;;;;10.00;8.00;;;;;18.67;79.72;101070.88;5075663;27;45373;-69
2021/08/03 01:16:21;;;;;;;;;7.00;5.75;;;;;18.66;79.04;101063.84;5060664;28;45382;-69
2021/08/03 01:19:13;;;;;;;;;8.00;7.67;;;;;18.63;79.29;101066.72;5077228;27;48868;-69
2021/08/03 01:21:48;;;;;;;;;5.25;5.25;;;;;18.65;79.49;101070.13;5076363;27;45398;-69
2021/08/03 01:24:16;;;;;;;;;9.00;7.50;;;;;18.64;79.10;101066.63;5075695;28;45515;-69
2021/08/03 01:27:02;;;;;;;;;9.25;6.75;;;;;18.63;79.09;101064.91;5073922;28;45373;-69
2021/08/03 01:29:30;;;;;;;;;6.25;6.00;;;;;18.63;79.67;101070.22;5073504;28;45679;-69
2021/08/03 01:32:08;;;;;;;;;8.25;6.75;;;;;18.60;78.96;101062.47;5070121;28;45735;-69
2021/08/03 01:34:38;;;;;;;;;8.50;7.25;;;;;18.58;79.33;101058.22;5075092;27;45408;-69
2021/08/03 01:37:05;;;;;;;;;8.25;7.00;;;;;18.54;79.55;101049.63;5074553;27;45333;-70
2021/08/03 01:39:36;;;;;;;;;9.00;6.50;;;;;18.55;79.61;101056.63;5076872;27;46506;-69
2021/08/03 01:42:05;;;;;;;;;8.75;6.50;;;;;18.55;79.76;101056.63;5074809;28;45342;-69
2021/08/03 01:44:33;;;;;;;;;5.50;5.50;;;;;18.56;79.81;101053.00;5073563;27;45452;-69
2021/08/03 01:47:01;;;;;;;;;7.50;7.25;;;;;18.55;79.55;101039.81;5070271;27;45378;-69
2021/08/03 01:49:27;;;;;;;;;8.00;7.50;;;;;18.47;79.74;101027.88;5074035;27;46462;-69
2021/08/03 01:51:55;;;;;;;;;6.00;6.00;;;;;18.54;79.76;101036.31;5074987;27;45375;-69
2021/08/03 01:54:20;;;;;;;;;7.00;6.25;;;;;18.52;80.16;101039.06;5076277;28;45422;-69
2021/08/03 01:56:47;;;;;;;;;8.00;8.00;;;;;18.54;80.10;101040.78;5074690;27;45429;-69
2021/08/03 01:59:14;;;;;;;;;7.00;7.00;;;;;18.54;79.80;101040.78;5074628;27;45428;-69
2021/08/03 02:01:40;;;;;;;;;9.00;8.25;;;;;18.55;80.18;101045.13;5074663;27;45571;-69
2021/08/03 02:04:07;;;;;;;;;6.00;6.00;;;;;18.54;80.01;101041.63;5074952;27;45603;-69
2021/08/03 02:06:35;;;;;;;;;7.00;7.00;;;;;18.56;79.80;101046.84;5075443;27;45419;-69
2021/08/03 02:09:01;;;;;;;;;8.50;8.00;;;;;18.55;79.87;101045.13;5074444;27;46646;-69
2021/08/03 02:11:33;;;;;;;;;6.25;5.50;;;;;18.57;79.94;101045.88;5074715;27;45465;-72
2021/08/03 02:13:59;;;;;;;;;8.00;7.25;;;;;18.58;79.90;101058.22;5074490;27;45488;-72
2021/08/03 02:16:24;;;;;;;;;8.25;8.00;;;;;18.58;79.85;101052.88;5074710;27;45674;-72
2021/08/03 02:18:51;;;;;;;;;9.00;7.75;;;;;18.57;79.84;101052.03;5075275;27;45476;-72
2021/08/03 02:21:18;;;;;;;;;7.00;6.00;;;;;18.57;79.65;101048.53;5075043;27;45730;-72
2021/08/03 02:23:44;;;;;;;;;6.75;6.00;;;;;18.57;79.81;101048.53;5073511;27;45580;-72
2021/08/03 02:26:11;;;;;;;;;7.25;7.00;;;;;18.57;80.26;101054.69;5069839;28;45550;-72
2021/08/03 02:28:36;;;;;;;;;5.25;5.25;;;;;18.58;80.26;101052.88;5074299;27;45537;-72
2021/08/03 02:31:16;;;;;;;;;9.75;7.00;;;;;18.59;80.24;101051.94;5074315;27;45254;-72
2021/08/03 02:33:52;;;;;;;;;7.75;6.75;;;;;18.56;80.37;101045.03;5075824;28;45466;-72
2021/08/03 02:36:20;;;;;;;;;8.50;6.50;;;;;18.60;79.77;101043.00;5073459;28;45495;-72
2021/08/03 02:38:53;;;;;;;;;7.00;6.00;;;;;18.59;80.17;101041.31;5073969;27;45573;-72
2021/08/03 02:41:19;;;;;;;;;7.50;7.00;;;;;18.59;79.69;101036.81;5074471;27;45584;-72
2021/08/03 02:43:48;;;;;;;;;9.75;8.00;;;;;18.60;79.93;101037.66;5072766;27;45570;-71
2021/08/03 02:46:15;;;;;;;;;8.75;8.75;;;;;18.61;80.29;101034.03;5074030;27;45532;-72
2021/08/03 02:48:42;;;;;;;;;11.75;8.00;;;;;18.59;80.20;101036.81;5075082;27;45417;-72
2021/08/03 02:51:10;;;;;;;;;7.50;7.50;;;;;18.60;80.30;101040.34;5074216;27;45814;-72
2021/08/03 02:53:45;;;;;;;;;7.75;7.75;;;;;18.57;80.47;101025.41;5073928;28;45361;-72
2021/08/03 02:56:14;;;;;;;;;10.25;8.50;;;;;18.58;80.47;101028.94;5073851;27;45383;-72
2021/08/03 02:58:54;;;;;;;;;11.00;8.25;;;;;18.59;80.19;101036.81;5073607;27;48745;-72
2021/08/03 03:01:22;;;;;;;;;11.00;9.50;;;;;18.60;80.49;101037.66;5056554;27;45795;-72
2021/08/03 03:03:52;;;;;;;;;7.25;7.25;;;;;18.62;80.65;101033.06;5074042;27;45453;-72
2021/08/03 03:06:21;;;;;;;;;10.25;9.75;;;;;18.65;80.38;101038.19;5073270;28;45461;-72
2021/08/03 03:08:46;;;;;;;;;12.00;9.25;;;;;18.63;80.52;101032.09;5073341;27;45750;-72
2021/08/03 03:11:14;;;;;;;;;10.50;10.25;;;;;18.63;80.45;101024.13;5073633;27;45364;-72
2021/08/03 03:13:55;;;;;;;;;11.00;8.00;;;;;18.67;80.81;101022.94;5074023;28;45425;-72
2021/08/03 03:16:22;;;;;;;;;11.50;10.00;;;;;18.70;81.03;101022.78;5058333;28;45389;-72
2021/08/03 03:18:49;;;;;;;;;9.00;9.00;;;;;18.73;80.65;101020.72;5075402;27;45482;-72
2021/08/03 03:21:17;;;;;;;;;10.75;9.25;;;;;18.73;80.62;101011.88;5090746;27;45367;-72
2021/08/03 03:23:43;;;;;;;;;9.25;8.25;;;;;18.74;80.43;101013.56;5072346;27;45364;-72
2021/08/03 03:26:09;;;;;;;;;9.50;9.50;;;;;18.74;80.80;101010.91;5073370;27;45602;-73
2021/08/03 03:28:39;;;;;;;;;11.00;10.00;;;;;18.73;81.19;101017.22;5072911;28;47991;-72
2021/08/03 03:31:05;;;;;;;;;10.00;9.00;;;;;18.71;80.72;101016.47;5072949;27;45228;-72
2021/08/03 03:33:32;;;;;;;;;10.50;10.50;;;;;18.72;81.10;101018.19;5074564;28;45407;-72
2021/08/03 03:36:00;;;;;;;;;13.00;10.50;;;;;18.78;81.56;101028.38;5073199;27;45702;-72
2021/08/03 03:38:29;;;;;;;;;12.50;10.50;;;;;18.77;82.04;101016.88;5073188;27;45463;-73
2021/08/03 03:40:55;;;;;;;;;12.25;11.25;;;;;18.70;82.61;101006.81;5073161;27;45392;-72
2021/08/03 03:43:21;;;;;;;;;15.75;11.50;;;;;18.66;82.01;101008.78;5072678;27;46167;-72
2021/08/03 03:45:54;;;;;;;;;13.75;12.50;;;;;18.62;82.49;101001.97;5073243;28;45387;-72
2021/08/03 03:48:23;;;;;;;;;14.00;11.00;;;;;18.59;82.27;101004.88;5073515;28;45704;-71
2021/08/03 03:50:53;;;;;;;;;12.75;10.25;;;;;18.55;82.15;101014.03;5072377;27;45749;-71
2021/08/03 03:53:23;;;;;;;;;10.75;9.00;;;;;18.45;81.95;100997.03;5072951;27;45348;-71
2021/08/03 03:56:01;;;;;;;;;11.50;10.00;;;;;18.51;82.19;101016.06;5073219;27;45433;-71
2021/08/03 03:58:29;;;;;;;;;12.00;11.00;;;;;18.46;81.85;101014.69;5058628;28;45492;-71
2021/08/03 04:00:56;;;;;;;;;11.75;11.25;;;;;18.48;81.96;101018.13;5073298;27;45418;-71
2021/08/03 04:03:25;;;;;;;;;13.75;12.00;;;;;18.47;82.55;101019.91;5072533;27;45527;-72
2021/08/03 04:05:51;;;;;;;;;11.25;11.00;;;;;18.49;82.28;101028.66;5073418;27;46846;-73
2021/08/03 04:08:17;;;;;;;;;14.00;11.00;;;;;18.48;82.23;101028.75;5072354;27;46406;-74
2021/08/03 04:10:43;;;;;;;;;10.00;9.50;;;;;18.51;81.97;101031.19;5072736;27;45449;-74
2021/08/03 04:13:09;;;;;;;;;13.75;11.75;;;;;18.49;82.07;101035.78;5075936;28;45330;-75
2021/08/03 04:15:35;;;;;;;;;12.50;11.00;;;;;18.51;81.85;101028.53;5078031;27;45552;-71
2021/08/03 04:18:01;;;;;;;;;11.00;8.25;;;;;18.49;81.69;101033.97;5076161;27;45576;-71
2021/08/03 04:20:27;;;;;;;;;11.00;10.00;;;;;18.47;81.61;101035.03;5075018;27;45677;-72
2021/08/03 04:22:52;;;;;;;;;12.25;11.50;;;;;18.47;81.55;101040.34;5072255;27;45391;-71
2021/08/03 04:25:18;;;;;;;;;18.00;13.00;;;;;18.47;81.78;101032.34;5093300;27;45453;-71
2021/08/03 04:27:44;;;;;;;;;14.00;12.00;;;;;18.46;82.12;101036.84;5073604;28;46489;-71
2021/08/03 04:30:12;;;;;;;;;11.75;8.75;;;;;18.45;81.88;101028.97;5075581;27;45411;-71
2021/08/03 04:32:38;;;;;;;;;12.00;11.00;;;;;18.45;81.98;101028.97;5076359;27;45432;-71
2021/08/03 04:35:04;;;;;;;;;13.50;10.25;;;;;18.45;81.64;101024.50;5076164;27;45996;-71
2021/08/03 04:37:39;;;;;;;;;15.00;13.50;;;;;18.44;81.66;101021.94;5075860;27;46675;-71
2021/08/03 04:40:06;;;;;;;;;10.00;9.00;;;;;18.43;81.54;101025.56;5076342;28;46023;-71
2021/08/03 04:42:31;;;;;;;;;14.00;8.75;;;;;18.42;81.38;101018.53;5076819;28;45374;-71
2021/08/03 04:44:56;;;;;;;;;13.75;11.75;;;;;18.43;81.30;101021.09;5075503;27;45684;-71
2021/08/03 04:47:22;;;;;;;;;11.75;11.00;;;;;18.42;81.65;101030.03;5075443;28;46270;-72
2021/08/03 04:49:47;;;;;;;;;10.75;9.75;;;;;18.43;81.78;101029.09;5075697;28;45453;-71
2021/08/03 04:52:12;;;;;;;;;8.75;8.00;;;;;18.42;81.83;101032.69;5075670;27;45357;-71
2021/08/03 04:54:38;;;;;;;;;12.75;12.00;;;;;18.39;82.18;101019.63;5077410;28;45871;-71
2021/08/03 04:57:03;;;;;;;;;11.25;10.75;;;;;18.38;81.39;101011.75;5075513;28;56420;-71
2021/08/03 04:59:28;;;;;;;;;11.50;10.75;;;;;18.40;81.63;101021.31;5073831;27;45552;-71
2021/08/03 05:01:54;;;;;;;;;10.00;9.00;;;;;18.36;81.70;101017.16;5075727;27;45489;-71
2021/08/03 05:04:19;;;;;;;;;10.50;10.00;;;;;18.39;81.78;101013.44;5075778;28;45325;-71
2021/08/03 05:06:44;;;;;;;;;12.25;10.75;;;;;18.39;81.64;101010.78;5076895;28;65300;-73
2021/08/03 05:09:10;;;;;;;;;11.50;11.25;;;;;18.37;81.56;101002.88;5074716;28;45304;-72
2021/08/03 05:11:35;;;;;;;;;14.25;11.75;;;;;18.41;81.66;101008.84;5074510;27;45787;-72
2021/08/03 05:14:00;;;;;;;;;12.00;10.75;;;;;18.40;81.64;101000.03;5074417;28;45658;-72
2021/08/03 05:16:28;;;;;;;;;12.75;11.00;;;;;18.43;81.36;101013.13;5075048;27;50360;-72
2021/08/03 05:18:54;;;;;;;;;13.25;11.75;;;;;18.45;81.78;101018.31;5076471;27;45775;-71
2021/08/03 05:21:19;;;;;;;;;15.75;10.00;;;;;18.47;82.01;101019.06;5074601;28;60092;-71
2021/08/03 05:23:44;;;;;;;;;11.00;9.50;;;;;18.46;82.06;101015.53;5075010;27;45461;-71
2021/08/03 05:26:10;;;;;;;;;13.00;12.00;;;;;18.49;81.92;101018.00;5074755;28;52735;-72
2021/08/03 05:28:35;;;;;;;;;16.00;11.00;;;;;18.51;82.14;101012.56;5074863;28;45389;-72
2021/08/03 05:31:00;;;;;;;;;10.25;10.25;;;;;18.51;81.54;101010.75;5075789;27;45576;-72
2021/08/03 05:33:25;;;;;;;;;10.25;10.25;;;;;18.55;81.42;101015.84;5076825;27;45479;-72
2021/08/03 05:35:51;;;;;;;;;11.00;11.00;;;;;18.65;82.38;101025.72;5070148;27;63558;-72
2021/08/03 05:38:16;;;;;;;;;14.25;12.25;;;;;18.82;81.89;101027.19;5073368;27;45350;-72
2021/08/03 05:40:41;;;;;;;;;12.00;11.25;;;;;18.94;81.81;101022.78;5074968;27;45433;-72
2021/08/03 05:43:07;;;;;;;;;10.50;10.50;;;;;19.03;81.64;101014.13;5074542;27;45386;-72
2021/08/03 05:45:32;;;;;;;;;8.75;8.75;;;;;19.13;80.68;101019.63;5076905;27;46364;-72
2021/08/03 05:47:57;;;;;;;;;9.75;9.50;;;;;19.21;80.55;101027.88;5072722;27;45609;-72
2021/08/03 05:50:23;;;;;;;;;12.25;9.75;;;;;19.24;80.71;101025.00;5075245;27;45390;-71
2021/08/03 05:52:48;;;;;;;;;12.00;10.25;;;;;19.22;80.34;101018.94;5074835;27;45460;-71
2021/08/03 05:55:13;;;;;;;;;11.25;10.00;;;;;19.23;80.18;101021.47;5074517;27;46123;-72
2021/08/03 05:57:39;;;;;;;;;9.50;8.25;;;;;19.27;80.46;101024.78;5076472;27;45295;-72
2021/08/03 06:00:05;;;;;;;;;11.50;11.00;;;;;19.25;79.85;101027.53;5072927;28;48188;-71
2021/08/03 06:02:31;;;;;;;;;10.75;8.25;;;;;19.25;80.21;101030.19;5074661;27;45416;-71
2021/08/03 06:04:56;;;;;;;;;10.75;9.00;;;;;19.22;80.13;101025.13;5074680;28;46533;-72
2021/08/03 06:07:25;;;;;;;;;12.25;10.00;;;;;19.24;80.31;101025.84;5074194;27;45497;-72
2021/08/03 06:09:56;;;;;;;;;12.50;11.50;;;;;19.23;79.96;101015.31;5076124;27;45417;-71
2021/08/03 06:12:24;;;;;;;;;13.00;10.25;;;;;19.25;80.87;101022.19;5075196;27;45467;-72
2021/08/03 06:14:54;;;;;;;;;12.75;12.00;;;;;19.29;80.40;101029.00;5074599;27;45425;-72
2021/08/03 06:17:27;;;;;;;;;9.00;9.00;;;;;19.35;79.80;101024.19;5073083;27;45615;-72
2021/08/03 06:19:52;;;;;;;;;8.50;8.50;;;;;19.37;80.04;101030.25;5074364;27;45390;-71
2021/08/03 06:22:18;;;;;;;;;9.75;7.50;;;;;19.40;79.83;101027.34;5074703;28;45361;-71
2021/08/03 06:24:47;;;;;;;;;10.50;9.00;;;;;19.48;79.92;101036.50;5071726;28;45452;-71
2021/08/03 06:27:16;;;;;;;;;9.00;9.00;;;;;19.54;80.14;101030.69;5074063;27;45776;-72
2021/08/03 06:29:43;;;;;;;;;12.50;10.50;;;;;19.61;80.07;101040.91;5074763;27;45336;-71
2021/08/03 06:32:09;;;;;;;;;12.75;10.75;;;;;19.60;79.83;101033.88;5074225;27;45572;-72
2021/08/03 06:34:38;;;;;;;;;12.50;12.25;;;;;19.71;79.31;101047.25;5072985;27;45438;-72
2021/08/03 06:37:04;;;;;;;;;10.50;9.25;;;;;19.79;79.28;101047.53;5074790;27;45501;-72
2021/08/03 06:39:29;;;;;;;;;13.00;10.50;;;;;19.87;79.05;101042.44;5074052;28;45308;-72
2021/08/03 06:42:02;;;;;;;;;12.00;9.00;;;;;19.96;78.23;101038.22;5074233;27;45609;-71
2021/08/03 06:44:35;;;;;;;;;10.00;10.00;;;;;20.08;78.34;101046.09;5074208;27;46630;-71
2021/08/03 06:47:01;;;;;;;;;12.75;9.25;;;;;20.21;77.59;101050.50;5073657;27;45719;-71
2021/08/03 06:49:32;;;;;;;;;13.00;12.00;;;;;20.35;78.31;101050.25;5074007;27;45430;-71
2021/08/03 06:51:58;;;;;;;;;14.25;11.50;;;;;20.49;77.40;101047.38;5075199;28;45443;-71
2021/08/03 06:54:27;;;;;;;;;10.50;9.00;;;;;20.56;77.20;101045.03;5074533;28;45912;-71
2021/08/03 06:57:15;;;;;;;;;15.00;10.50;;;;;20.57;76.73;101052.97;5072255;27;45740;-71
2021/08/03 06:59:52;;;;;;;;;12.00;10.25;;;;;20.48;76.46;101045.69;5090891;27;45442;-71
2021/08/03 07:02:29;;;;;;;;;15.25;11.00;;;;;20.38;76.00;101058.03;5073642;27;45517;-71
2021/08/03 07:05:19;;;;;;;;;14.25;11.75;;;;;20.27;76.54;101058.88;5073426;28;45548;-72
2021/08/03 07:07:45;;;;;;;;;11.00;11.00;;;;;20.23;76.54;101061.88;5072290;27;45502;-70
2021/08/03 07:10:15;;;;;;;;;11.75;10.75;;;;;20.16;76.52;101060.69;5088858;27;45408;-69
2021/08/03 07:12:43;;;;;;;;;8.25;6.25;;;;;20.20;75.66;101075.47;5074935;27;45317;-69
2021/08/03 07:15:09;;;;;;;;;11.25;8.00;;;;;20.11;75.47;101070.88;5072631;27;45652;-69
2021/08/03 07:17:35;;;;;;;;;7.00;7.00;;;;;20.06;76.39;101069.41;5072239;27;45674;-71
2021/08/03 07:20:02;;;;;;;;;7.50;6.00;;;;;20.12;76.08;101069.88;5073752;27;45361;-71
2021/08/03 07:22:28;;;;;;;;;6.25;6.25;;;;;20.16;76.42;101069.53;5073962;27;45390;-71
2021/08/03 07:24:55;;;;;;;;;6.00;5.00;;;;;20.22;76.70;101074.38;5074563;27;45872;-71
2021/08/03 07:27:21;;;;;;;;;6.50;6.00;;;;;20.36;76.17;101062.63;5074369;28;45559;-71
2021/08/03 07:29:46;;;;;;;;;6.25;5.00;;;;;20.48;75.26;101063.50;5069006;27;45432;-71
2021/08/03 07:32:12;;;;;;;;;9.00;6.75;;;;;20.66;75.61;101066.53;5073398;27;45428;-72
2021/08/03 07:34:39;;;;;;;;;5.50;5.25;;;;;20.87;75.25;101070.13;5071947;27;46376;-71
2021/08/03 07:37:06;;;;;;;;;4.00;3.50;;;;;21.11;74.46;101084.19;5073623;27;45331;-71
2021/08/03 07:39:32;;;;;;;;;6.75;4.75;;;;;21.27;73.63;101089.13;5075120;27;45424;-72
2021/08/03 07:41:58;;;;;;;;;5.75;4.50;;;;;21.34;73.50;101089.50;5073163;28;45377;-72
2021/08/03 07:44:24;;;;;;;;;9.50;4.00;;;;;21.39;73.11;101089.13;5074738;27;47248;-72
2021/08/03 07:46:49;;;;;;;;;4.75;2.25;;;;;21.60;73.49;101093.50;5084053;27;45490;-72
2021/08/03 07:49:16;;;;;;;;;3.00;3.00;;;;;21.89;72.23;101092.91;5072819;27;45624;-72
2021/08/03 07:51:42;;;;;;;;;3.25;3.00;;;;;22.13;71.07;101088.19;5091043;27;45698;-71
2021/08/03 07:54:07;;;;;;;;;3.50;2.25;;;;;22.35;71.26;101087.16;5070909;28;46611;-72
2021/08/03 07:56:32;;;;;;;;;1.50;1.50;;;;;22.49;69.27;101091.28;5071488;27;45340;-71
2021/08/03 07:58:58;;;;;;;;;3.00;3.00;;;;;22.59;70.11;101089.50;5071767;27;45660;-71
2021/08/03 08:01:23;;;;;;;;;3.00;2.00;;;;;22.69;69.47;101084.19;5073130;27;45330;-71
2021/08/03 08:03:48;;;;;;;;;2.25;2.25;;;;;22.89;69.10;101088.66;5073913;27;45852;-71
2021/08/03 08:06:15;;;;;;;;;2.50;1.75;;;;;23.05;68.72;101077.41;5072243;27;45451;-72
2021/08/03 08:08:40;;;;;;;;;2.50;2.00;;;;;23.46;67.91;101071.94;5072450;27;45469;-71
2021/08/03 08:11:06;;;;;;;;;3.75;2.00;;;;;24.29;65.69;101073.97;5072864;27;45418;-71
2021/08/03 08:13:31;;;;;;;;;5.50;4.00;;;;;24.48;64.79;101083.81;5071066;27;45520;-71
2021/08/03 08:15:57;;;;;;;;;2.00;1.00;;;;;24.50;64.07;101081.84;5073372;27;45780;-71
2021/08/03 08:18:22;;;;;;;;;2.50;2.50;;;;;25.49;65.23;101080.13;5073967;28;45557;-71
2021/08/03 08:20:48;;;;;;;;;7.00;2.50;;;;;26.94;63.32;101079.53;5072444;28;45499;-71
2021/08/03 08:23:15;;;;;;;;;2.50;2.00;;;;;28.65;61.90;101071.41;5072187;27;45441;-69
2021/08/03 08:25:41;;;;;;;;;4.75;3.75;;;;;29.76;57.05;101075.66;5069408;28;46087;-69
2021/08/03 08:28:07;;;;;;;;;1.25;1.25;;;;;30.29;54.97;101069.22;5070027;28;45324;-69
2021/08/03 08:30:34;;;;;;;;;2.00;2.00;;;;;30.22;54.00;101073.69;5075127;27;45439;-69
2021/08/03 08:32:59;;;;;;;;;2.50;2.50;;;;;29.55;52.50;101077.19;5072375;27;45501;-69
2021/08/03 08:35:25;;;;;;;;;3.50;2.25;;;;;28.62;53.25;101074.47;5070604;28;45707;-69
2021/08/03 08:37:50;;;;;;;;;3.25;3.00;;;;;27.69;54.17;101066.84;5071255;28;45497;-69
2021/08/03 08:40:18;;;;;;;;;4.00;1.75;;;;;27.00;54.84;101076.19;5072666;27;45264;-69
2021/08/03 08:42:45;;;;;;;;;2.00;2.00;;;;;27.50;54.65;101070.72;5074545;27;45584;-69
2021/08/03 08:45:11;;;;;;;;;3.25;2.75;;;;;27.56;54.80;101067.38;5072171;28;45322;-69
2021/08/03 08:47:37;;;;;;;;;3.25;3.25;;;;;29.37;54.46;101069.31;5070366;27;45456;-69
2021/08/03 08:50:08;;;;;;;;;3.00;3.00;;;;;31.72;52.05;101059.59;5071868;28;45505;-69
2021/08/03 08:52:36;;;;;;;;;3.75;2.25;;;;;34.13;47.49;101075.56;5071169;27;46509;-69
2021/08/03 08:55:03;;;;;;;;;4.00;3.00;;;;;37.21;44.96;101076.31;5071280;28;45371;-70
2021/08/03 08:57:28;;;;;;;;;5.00;3.50;;;;;40.08;42.81;101084.00;5072684;28;45355;-69
2021/08/03 08:59:54;;;;;;;;;3.00;3.00;;;;;42.22;37.63;101086.25;5075915;27;45311;-69
2021/08/03 09:02:45;;;;;;;;;4.25;4.00;;;;;44.27;34.26;101085.44;5075145;28;45389;-69
2021/08/03 09:05:15;;;;;;;;;1.75;1.75;;;;;45.53;32.33;101090.59;5075090;27;45394;-70
2021/08/03 09:07:51;;;;;;;;;2.00;2.00;;;;;46.85;30.15;101096.59;5072911;28;45517;-70
2021/08/03 09:10:36;;;;;;;;;2.00;2.00;;;;;48.10;27.88;101093.97;5075718;27;45378;-70
2021/08/03 09:13:13;;;;;;;;;1.00;1.00;;;;;48.72;25.95;101092.72;5074423;28;45495;-70
2021/08/03 09:15:41;;;;;;;;;2.00;1.00;;;;;48.71;25.14;101091.03;5076467;28;45691;-70
2021/08/03 09:18:17;;;;;;;;;5.25;2.25;;;;;48.10;25.40;101098.72;5075554;27;45653;-70
2021/08/03 09:20:45;;;;;;;;;4.25;3.25;;;;;48.67;25.38;101099.22;5075223;27;45247;-70
2021/08/03 09:23:11;;;;;;;;;1.50;1.25;;;;;47.96;24.50;101103.44;5075124;27;45725;-70
2021/08/03 09:25:38;;;;;;;;;1.75;1.75;;;;;45.07;25.06;101098.41;5075335;28;45393;-69
2021/08/03 09:28:05;;;;;;;;;1.50;1.50;;;;;42.21;27.51;101092.88;5075372;27;50065;-69
2021/08/03 09:30:34;;;;;;;;;1.00;1.00;;;;;39.89;28.80;101087.03;5073572;28;45594;-69
2021/08/03 09:33:01;;;;;;;;;0.25;0.25;;;;;37.81;30.94;101092.69;5075013;27;47524;-69
2021/08/03 09:35:27;;;;;;;;;2.25;1.50;;;;;36.10;32.21;101093.03;5074027;27;45731;-69
2021/08/03 09:37:54;;;;;;;;;1.00;1.00;;;;;35.04;33.72;101094.63;5075334;27;46659;-69
2021/08/03 09:40:31;;;;;;;;;1.00;1.00;;;;;34.51;34.05;101101.13;5074747;27;45492;-69
2021/08/03 09:43:11;;;;;;;;;0.00;0.00;;;;;33.52;35.75;101098.44;5074986;27;45602;-69
2021/08/03 09:45:56;;;;;;;;;2.50;2.50;;;;;32.50;36.55;101096.56;5075857;28;45702;-69
2021/08/03 09:48:23;;;;;;;;;3.00;3.00;;;;;31.66;37.54;101096.53;5074807;28;45708;-70
2021/08/03 09:50:52;;;;;;;;;2.50;2.25;;;;;31.00;39.17;101096.66;5074066;27;45587;-69
2021/08/03 09:53:41;;;;;;;;;2.00;1.50;;;;;30.82;39.85;101093.53;5073514;28;45488;-70
2021/08/03 09:56:09;;;;;;;;;2.75;2.75;;;;;30.70;39.29;101082.31;5074275;27;45346;-69
2021/08/03 09:58:52;;;;;;;;;3.00;3.00;;;;;30.83;39.24;101084.34;5074197;27;45811;-69
2021/08/03 10:01:28;;;;;;;;;2.75;2.75;;;;;30.56;39.02;101086.69;5072270;28;45398;-69
2021/08/03 10:03:57;;;;;;;;;2.00;2.00;;;;;30.04;39.92;101082.16;5070831;28;46326;-69
2021/08/03 10:06:22;;;;;;;;;2.25;2.25;;;;;29.62;39.10;101080.84;5075021;28;45714;-69
2021/08/03 10:08:53;;;;;;;;;2.00;2.00;;;;;29.26;39.28;101086.00;5072925;28;45435;-69
2021/08/03 10:11:19;;;;;;;;;3.75;2.50;;;;;28.95;41.21;101082.47;5072745;27;45290;-70
2021/08/03 10:13:47;;;;;;;;;4.75;3.50;;;;;28.72;41.74;101079.69;5070335;27;46482;-69
2021/08/03 10:16:13;;;;;;;;;3.00;3.00;;;;;28.46;42.20;101077.25;5070752;27;45426;-69
2021/08/03 10:18:40;;;;;;;;;3.00;2.50;;;;;28.23;43.28;101077.09;5072272;27;45558;-69
2021/08/03 10:21:08;;;;;;;;;2.75;2.75;;;;;28.01;43.82;101082.19;5070754;27;45704;-69
2021/08/03 10:23:36;;;;;;;;;3.00;3.00;;;;;27.91;43.93;101084.25;5069201;27;45643;-69
2021/08/03 10:26:10;;;;;;;;;3.00;3.00;;;;;28.02;44.32;101091.16;5068932;27;45763;-69
2021/08/03 10:28:36;;;;;;;;;3.25;2.00;;;;;28.42;44.24;101082.16;5070081;27;45381;-69
2021/08/03 10:31:02;;;;;;;;;4.50;3.00;;;;;28.84;44.37;101081.81;5072418;28;45473;-69
2021/08/03 10:33:38;;;;;;;;;4.00;4.00;;;;;29.47;43.03;101081.78;5072777;27;46574;-69
2021/08/03 10:36:04;;;;;;;;;4.00;3.75;;;;;29.86;42.25;101063.53;5069256;27;45662;-69
2021/08/03 10:38:29;;;;;;;;;5.75;4.25;;;;;29.66;40.42;101065.06;5070369;28;45435;-69
2021/08/03 10:41:00;;;;;;;;;3.75;3.75;;;;;29.26;40.81;101074.31;5070198;27;45693;-69
2021/08/03 10:43:34;;;;;;;;;4.75;3.00;;;;;28.84;41.10;101076.38;5069606;27;45707;-69
2021/08/03 10:46:05;;;;;;;;;4.00;3.25;;;;;28.50;41.86;101073.16;5071025;27;45501;-70
2021/08/03 10:48:36;;;;;;;;;3.50;3.00;;;;;28.15;42.63;101077.13;5072310;28;45751;-69
2021/08/03 10:51:14;;;;;;;;;4.00;4.00;;;;;27.97;43.49;101067.34;5070428;27;45424;-69
2021/08/03 10:54:01;;;;;;;;;3.50;3.50;;;;;27.72;44.19;101073.78;5069593;28;45547;-69
2021/08/03 10:56:28;;;;;;;;;6.25;4.00;;;;;27.35;44.95;101064.28;5069866;28;45901;-69
2021/08/03 10:59:32;;;;;;;;;2.25;2.25;;;;;27.13;45.37;101081.97;5070651;27;45827;-69
2021/08/03 11:01:59;;;;;;;;;6.75;4.00;;;;;26.88;45.94;101064.84;5068533;27;45621;-69
2021/08/03 11:04:43;;;;;;;;;4.00;4.00;;;;;26.65;46.50;101072.69;5070576;28;46504;-69
2021/08/03 11:07:27;;;;;;;;;4.25;4.25;;;;;26.46;46.97;101079.16;5070139;27;45856;-70
2021/08/03 11:10:20;;;;;;;;;3.00;3.00;;;;;26.46;47.56;101070.22;5068204;27;45567;-69
2021/08/03 11:12:51;;;;;;;;;6.00;4.00;;;;;27.13;46.92;101067.63;5071699;28;45655;-69
2021/08/03 11:15:22;;;;;;;;;5.00;4.00;;;;;27.99;46.33;101075.31;5070423;28;45790;-69
2021/08/03 11:18:03;;;;;;;;;5.00;3.50;;;;;28.81;44.66;101065.06;5068617;28;45711;-69
2021/08/03 11:20:37;;;;;;;;;4.00;3.50;;;;;29.32;43.27;101074.44;5069409;27;45396;-69
2021/08/03 11:23:04;;;;;;;;;4.50;4.00;;;;;29.70;42.54;101069.06;5068170;27;45374;-70
2021/08/03 11:25:30;;;;;;;;;4.00;4.00;;;;;29.69;41.40;101066.56;5068788;28;46339;-70
2021/08/03 11:28:09;;;;;;;;;3.00;2.00;;;;;29.24;42.20;101077.22;5071220;27;46069;-70